sensor_id;sensor_type;location;lat;lon;timestamp;temperature;humidity
52543;DHT22;38449;52.696;6.186;2022-10-31T00:00:17;13.00;99.90
52543;DHT22;38449;52.696;6.186;2022-10-31T00:02:42;13.00;99.90
52543;DHT22;38449;52.696;6.186;2022-10-31T00:05:08;13.00;99.90
52543;DHT22;38449;52.696;6.186;2022-10-31T00:07:34;13.00;99.90
52543;DHT22;38449;52.696;6.186;2022-10-31T00:09:59;13.00;99.90
52543;DHT22;38449;52.696;6.186;2022-10-31T00:12:26;13.00;99.90
52543;DHT22;38449;52.696;6.186;2022-10-31T00:14:52;13.00;99.90
52543;DHT22;38449;52.696;6.186;2022-10-31T00:17:18;12.90;99.90
52543;DHT22;38449;52.696;6.186;2022-10-31T00:19:43;12.80;99.90
52543;DHT22;38449;52.696;6.186;2022-10-31T00:22:09;12.70;99.90
52543;DHT22;38449;52.696;6.186;2022-10-31T00:24:35;12.60;99.90
52543;DHT22;38449;52.696;6.186;2022-10-31T00:27:00;12.60;99.90
52543;DHT22;38449;52.696;6.186;2022-10-31T00:29:26;12.60;99.90
52543;DHT22;38449;52.696;6.186;2022-10-31T00:31:52;12.60;99.90
52543;DHT22;38449;52.696;6.186;2022-10-31T00:34:17;12.60;99.90
52543;DHT22;38449;52.696;6.186;2022-10-31T00:36:43;12.60;99.90
52543;DHT22;38449;52.696;6.186;2022-10-31T00:39:09;12.60;99.90
52543;DHT22;38449;52.696;6.186;2022-10-31T00:41:34;12.60;99.90
52543;DHT22;38449;52.696;6.186;2022-10-31T00:44:00;12.50;99.90
52543;DHT22;38449;52.696;6.186;2022-10-31T00:46:25;12.50;99.90
52543;DHT22;38449;52.696;6.186;2022-10-31T00:48:51;12.50;99.90
52543;DHT22;38449;52.696;6.186;2022-10-31T00:51:17;12.50;99.90
52543;DHT22;38449;52.696;6.186;2022-10-31T00:53:42;12.50;99.90
52543;DHT22;38449;52.696;6.186;2022-10-31T00:56:08;12.40;99.90
52543;DHT22;38449;52.696;6.186;2022-10-31T00:58:33;12.40;99.90
52543;DHT22;38449;52.696;6.186;2022-10-31T01:00:59;12.40;99.90
52543;DHT22;38449;52.696;6.186;2022-10-31T01:03:27;12.40;99.90
52543;DHT22;38449;52.696;6.186;2022-10-31T01:06:10;12.40;99.90
52543;DHT22;38449;52.696;6.186;2022-10-31T01:08:37;12.40;99.90
52543;DHT22;38449;52.696;6.186;2022-10-31T01:11:12;12.40;99.90
52543;DHT22;38449;52.696;6.186;2022-10-31T01:13:39;12.40;99.90
52543;DHT22;38449;52.696;6.186;2022-10-31T01:16:06;12.40;99.90
52543;DHT22;38449;52.696;6.186;2022-10-31T01:18:32;12.40;99.90
52543;DHT22;38449;52.696;6.186;2022-10-31T01:21:13;12.40;99.90
52543;DHT22;38449;52.696;6.186;2022-10-31T01:23:39;12.40;99.90
52543;DHT22;38449;52.696;6.186;2022-10-31T01:28:40;12.40;99.90
52543;DHT22;38449;52.696;6.186;2022-10-31T01:31:08;12.40;99.90
52543;DHT22;38449;52.696;6.186;2022-10-31T01:33:35;12.40;99.90
52543;DHT22;38449;52.696;6.186;2022-10-31T01:36:10;12.20;99.90
52543;DHT22;38449;52.696;6.186;2022-10-31T01:38:36;12.30;99.90
52543;DHT22;38449;52.696;6.186;2022-10-31T01:41:02;12.30;99.90
52543;DHT22;38449;52.696;6.186;2022-10-31T01:43:51;12.20;99.90
52543;DHT22;38449;52.696;6.186;2022-10-31T01:46:30;12.20;99.90
52543;DHT22;38449;52.696;6.186;2022-10-31T01:48:59;12.10;99.90
52543;DHT22;38449;52.696;6.186;2022-10-31T01:51:33;12.10;99.90
52543;DHT22;38449;52.696;6.186;2022-10-31T01:54:08;12.10;99.90
52543;DHT22;38449;52.696;6.186;2022-10-31T01:56:39;12.10;99.90
52543;DHT22;38449;52.696;6.186;2022-10-31T01:59:07;12.00;99.90
52543;DHT22;38449;52.696;6.186;2022-10-31T02:01:34;12.00;99.90
52543;DHT22;38449;52.696;6.186;2022-10-31T02:04:00;12.00;99.90
52543;DHT22;38449;52.696;6.186;2022-10-31T02:06:38;12.00;99.90
52543;DHT22;38449;52.696;6.186;2022-10-31T02:09:06;12.00;99.90
52543;DHT22;38449;52.696;6.186;2022-10-31T02:11:33;11.90;99.90
52543;DHT22;38449;52.696;6.186;2022-10-31T02:14:02;11.90;99.90
52543;DHT22;38449;52.696;6.186;2022-10-31T02:16:28;11.90;99.90
52543;DHT22;38449;52.696;6.186;2022-10-31T02:18:54;11.90;99.90
52543;DHT22;38449;52.696;6.186;2022-10-31T02:21:32;11.80;99.90
52543;DHT22;38449;52.696;6.186;2022-10-31T02:27:06;11.90;99.90
52543;DHT22;38449;52.696;6.186;2022-10-31T02:32:25;11.90;99.90
52543;DHT22;38449;52.696;6.186;2022-10-31T02:37:42;11.80;99.90
52543;DHT22;38449;52.696;6.186;2022-10-31T02:40:21;11.80;99.90
52543;DHT22;38449;52.696;6.186;2022-10-31T02:43:04;11.80;99.90
52543;DHT22;38449;52.696;6.186;2022-10-31T02:45:58;11.80;99.90
52543;DHT22;38449;52.696;6.186;2022-10-31T02:48:27;11.80;99.90
52543;DHT22;38449;52.696;6.186;2022-10-31T02:50:56;11.70;99.90
52543;DHT22;38449;52.696;6.186;2022-10-31T02:53:23;11.70;99.90
52543;DHT22;38449;52.696;6.186;2022-10-31T02:56:12;11.70;99.90
52543;DHT22;38449;52.696;6.186;2022-10-31T02:58:47;11.70;99.90
52543;DHT22;38449;52.696;6.186;2022-10-31T03:07:00;11.60;99.90
52543;DHT22;38449;52.696;6.186;2022-10-31T03:09:46;11.60;99.90
52543;DHT22;38449;52.696;6.186;2022-10-31T03:15:18;11.60;99.90
52543;DHT22;38449;52.696;6.186;2022-10-31T03:20:44;11.50;99.90
52543;DHT22;38449;52.696;6.186;2022-10-31T03:23:15;11.50;99.90
52543;DHT22;38449;52.696;6.186;2022-10-31T03:25:42;11.50;99.90
52543;DHT22;38449;52.696;6.186;2022-10-31T03:28:10;11.50;99.90
52543;DHT22;38449;52.696;6.186;2022-10-31T03:30:38;11.40;99.90
52543;DHT22;38449;52.696;6.186;2022-10-31T03:33:09;11.40;99.90
52543;DHT22;38449;52.696;6.186;2022-10-31T03:35:36;11.40;99.90
52543;DHT22;38449;52.696;6.186;2022-10-31T03:38:04;11.30;99.90
52543;DHT22;38449;52.696;6.186;2022-10-31T03:40:31;11.30;99.90
52543;DHT22;38449;52.696;6.186;2022-10-31T03:43:01;11.30;99.90
52543;DHT22;38449;52.696;6.186;2022-10-31T03:45:30;11.30;99.90
52543;DHT22;38449;52.696;6.186;2022-10-31T03:47:58;11.30;99.90
52543;DHT22;38449;52.696;6.186;2022-10-31T03:50:29;11.30;99.90
52543;DHT22;38449;52.696;6.186;2022-10-31T03:53:03;11.30;99.90
52543;DHT22;38449;52.696;6.186;2022-10-31T03:55:49;11.20;99.90
52543;DHT22;38449;52.696;6.186;2022-10-31T03:58:23;11.20;99.90
52543;DHT22;38449;52.696;6.186;2022-10-31T04:00:51;11.20;99.90
52543;DHT22;38449;52.696;6.186;2022-10-31T04:03:22;11.20;99.90
52543;DHT22;38449;52.696;6.186;2022-10-31T04:05:50;11.10;99.90
52543;DHT22;38449;52.696;6.186;2022-10-31T04:08:20;11.10;99.90
52543;DHT22;38449;52.696;6.186;2022-10-31T04:10:49;11.10;99.90
52543;DHT22;38449;52.696;6.186;2022-10-31T04:13:20;11.10;99.90
52543;DHT22;38449;52.696;6.186;2022-10-31T04:15:49;11.10;99.90
52543;DHT22;38449;52.696;6.186;2022-10-31T04:18:16;11.10;99.90
52543;DHT22;38449;52.696;6.186;2022-10-31T04:20:42;11.00;99.90
52543;DHT22;38449;52.696;6.186;2022-10-31T04:23:26;11.00;99.90
52543;DHT22;38449;52.696;6.186;2022-10-31T04:25:52;11.00;99.90
52543;DHT22;38449;52.696;6.186;2022-10-31T04:28:18;11.00;99.90
52543;DHT22;38449;52.696;6.186;2022-10-31T04:30:44;10.90;99.90
52543;DHT22;38449;52.696;6.186;2022-10-31T04:33:09;10.90;99.90
52543;DHT22;38449;52.696;6.186;2022-10-31T04:35:35;10.90;99.90
52543;DHT22;38449;52.696;6.186;2022-10-31T04:38:01;10.90;99.90
52543;DHT22;38449;52.696;6.186;2022-10-31T04:40:26;10.90;99.90
52543;DHT22;38449;52.696;6.186;2022-10-31T04:42:52;10.90;99.90
52543;DHT22;38449;52.696;6.186;2022-10-31T04:45:17;10.80;99.90
52543;DHT22;38449;52.696;6.186;2022-10-31T04:47:43;10.80;99.90
52543;DHT22;38449;52.696;6.186;2022-10-31T04:50:09;10.90;99.90
52543;DHT22;38449;52.696;6.186;2022-10-31T04:52:41;10.80;99.90
52543;DHT22;38449;52.696;6.186;2022-10-31T04:55:07;10.80;99.90
52543;DHT22;38449;52.696;6.186;2022-10-31T04:57:43;10.80;99.90
52543;DHT22;38449;52.696;6.186;2022-10-31T05:00:10;10.80;99.90
52543;DHT22;38449;52.696;6.186;2022-10-31T05:02:57;10.80;99.90
52543;DHT22;38449;52.696;6.186;2022-10-31T05:05:25;10.80;99.90
52543;DHT22;38449;52.696;6.186;2022-10-31T05:07:51;10.80;99.90
52543;DHT22;38449;52.696;6.186;2022-10-31T05:10:19;10.80;99.90
52543;DHT22;38449;52.696;6.186;2022-10-31T05:12:52;10.80;99.90
52543;DHT22;38449;52.696;6.186;2022-10-31T05:15:20;10.70;99.90
52543;DHT22;38449;52.696;6.186;2022-10-31T05:17:45;10.70;99.90
52543;DHT22;38449;52.696;6.186;2022-10-31T05:20:12;10.70;99.90
52543;DHT22;38449;52.696;6.186;2022-10-31T05:22:42;10.70;99.90
52543;DHT22;38449;52.696;6.186;2022-10-31T05:25:08;10.70;99.90
52543;DHT22;38449;52.696;6.186;2022-10-31T05:27:34;10.60;99.90
52543;DHT22;38449;52.696;6.186;2022-10-31T05:29:59;10.60;99.90
52543;DHT22;38449;52.696;6.186;2022-10-31T05:32:25;10.60;99.90
52543;DHT22;38449;52.696;6.186;2022-10-31T05:34:51;10.60;99.90
52543;DHT22;38449;52.696;6.186;2022-10-31T05:37:16;10.60;99.90
52543;DHT22;38449;52.696;6.186;2022-10-31T05:39:42;10.60;99.90
52543;DHT22;38449;52.696;6.186;2022-10-31T05:42:07;10.60;99.90
52543;DHT22;38449;52.696;6.186;2022-10-31T05:44:33;10.50;99.90
52543;DHT22;38449;52.696;6.186;2022-10-31T05:46:58;10.50;99.90
52543;DHT22;38449;52.696;6.186;2022-10-31T05:49:24;10.50;99.90
52543;DHT22;38449;52.696;6.186;2022-10-31T05:51:49;10.50;99.90
52543;DHT22;38449;52.696;6.186;2022-10-31T05:54:15;10.50;99.90
52543;DHT22;38449;52.696;6.186;2022-10-31T05:56:40;10.40;99.90
52543;DHT22;38449;52.696;6.186;2022-10-31T05:59:06;10.40;99.90
52543;DHT22;38449;52.696;6.186;2022-10-31T06:01:32;10.40;99.90
52543;DHT22;38449;52.696;6.186;2022-10-31T06:03:57;10.40;99.90
52543;DHT22;38449;52.696;6.186;2022-10-31T06:06:23;10.40;99.90
52543;DHT22;38449;52.696;6.186;2022-10-31T06:08:48;10.30;99.90
52543;DHT22;38449;52.696;6.186;2022-10-31T06:11:14;10.30;99.90
52543;DHT22;38449;52.696;6.186;2022-10-31T06:13:39;10.30;99.90
52543;DHT22;38449;52.696;6.186;2022-10-31T06:16:05;10.30;99.90
52543;DHT22;38449;52.696;6.186;2022-10-31T06:18:30;10.30;99.90
52543;DHT22;38449;52.696;6.186;2022-10-31T06:20:56;10.30;99.90
52543;DHT22;38449;52.696;6.186;2022-10-31T06:23:21;10.30;99.90
52543;DHT22;38449;52.696;6.186;2022-10-31T06:25:51;10.30;99.90
52543;DHT22;38449;52.696;6.186;2022-10-31T06:28:17;10.30;99.90
52543;DHT22;38449;52.696;6.186;2022-10-31T06:30:42;10.30;99.90
52543;DHT22;38449;52.696;6.186;2022-10-31T06:33:08;10.30;99.90
52543;DHT22;38449;52.696;6.186;2022-10-31T06:35:34;10.30;99.90
52543;DHT22;38449;52.696;6.186;2022-10-31T06:37:59;10.30;99.90
52543;DHT22;38449;52.696;6.186;2022-10-31T06:40:25;10.30;99.90
52543;DHT22;38449;52.696;6.186;2022-10-31T06:42:58;10.30;99.90
52543;DHT22;38449;52.696;6.186;2022-10-31T06:45:24;10.20;99.90
52543;DHT22;38449;52.696;6.186;2022-10-31T06:47:53;10.20;99.90
52543;DHT22;38449;52.696;6.186;2022-10-31T06:50:20;10.20;99.90
52543;DHT22;38449;52.696;6.186;2022-10-31T06:52:52;10.20;99.90
52543;DHT22;38449;52.696;6.186;2022-10-31T06:55:18;10.20;99.90
52543;DHT22;38449;52.696;6.186;2022-10-31T06:57:57;10.20;99.90
52543;DHT22;38449;52.696;6.186;2022-10-31T07:00:24;10.20;99.90
52543;DHT22;38449;52.696;6.186;2022-10-31T07:03:13;10.20;99.90
52543;DHT22;38449;52.696;6.186;2022-10-31T07:05:39;10.20;99.90
52543;DHT22;38449;52.696;6.186;2022-10-31T07:08:08;10.20;99.90
52543;DHT22;38449;52.696;6.186;2022-10-31T07:10:35;10.20;99.90
52543;DHT22;38449;52.696;6.186;2022-10-31T07:13:03;10.30;99.90
52543;DHT22;38449;52.696;6.186;2022-10-31T07:15:34;10.30;99.90
52543;DHT22;38449;52.696;6.186;2022-10-31T07:18:01;10.20;99.90
52543;DHT22;38449;52.696;6.186;2022-10-31T07:20:28;10.30;99.90
52543;DHT22;38449;52.696;6.186;2022-10-31T07:22:53;10.30;99.90
52543;DHT22;38449;52.696;6.186;2022-10-31T07:25:19;10.30;99.90
52543;DHT22;38449;52.696;6.186;2022-10-31T07:27:45;10.30;99.90
52543;DHT22;38449;52.696;6.186;2022-10-31T07:30:11;10.40;99.90
52543;DHT22;38449;52.696;6.186;2022-10-31T07:32:41;10.40;99.90
52543;DHT22;38449;52.696;6.186;2022-10-31T07:35:08;10.40;99.90
52543;DHT22;38449;52.696;6.186;2022-10-31T07:37:35;10.50;99.90
52543;DHT22;38449;52.696;6.186;2022-10-31T07:40:01;10.50;99.90
52543;DHT22;38449;52.696;6.186;2022-10-31T07:42:27;10.50;99.90
52543;DHT22;38449;52.696;6.186;2022-10-31T07:44:53;10.60;99.90
52543;DHT22;38449;52.696;6.186;2022-10-31T07:47:18;10.60;99.90
52543;DHT22;38449;52.696;6.186;2022-10-31T07:49:44;10.60;99.90
52543;DHT22;38449;52.696;6.186;2022-10-31T07:52:09;10.60;99.90
52543;DHT22;38449;52.696;6.186;2022-10-31T07:54:35;10.70;99.90
52543;DHT22;38449;52.696;6.186;2022-10-31T07:57:00;10.70;99.90
52543;DHT22;38449;52.696;6.186;2022-10-31T07:59:26;10.80;99.90
52543;DHT22;38449;52.696;6.186;2022-10-31T08:01:52;10.80;99.90
52543;DHT22;38449;52.696;6.186;2022-10-31T08:04:18;10.90;99.90
52543;DHT22;38449;52.696;6.186;2022-10-31T08:06:44;11.00;99.90
52543;DHT22;38449;52.696;6.186;2022-10-31T08:09:09;11.10;99.90
52543;DHT22;38449;52.696;6.186;2022-10-31T08:11:35;11.20;99.90
52543;DHT22;38449;52.696;6.186;2022-10-31T08:14:00;11.30;99.90
52543;DHT22;38449;52.696;6.186;2022-10-31T08:16:26;11.30;99.90
52543;DHT22;38449;52.696;6.186;2022-10-31T08:18:52;11.20;99.90
52543;DHT22;38449;52.696;6.186;2022-10-31T08:21:20;11.30;99.90
52543;DHT22;38449;52.696;6.186;2022-10-31T08:23:46;11.50;99.90
52543;DHT22;38449;52.696;6.186;2022-10-31T08:26:11;11.60;99.90
52543;DHT22;38449;52.696;6.186;2022-10-31T08:28:37;11.60;99.90
52543;DHT22;38449;52.696;6.186;2022-10-31T08:31:02;11.70;99.90
52543;DHT22;38449;52.696;6.186;2022-10-31T08:33:28;11.70;99.90
52543;DHT22;38449;52.696;6.186;2022-10-31T08:35:54;11.80;99.90
52543;DHT22;38449;52.696;6.186;2022-10-31T08:38:19;11.80;99.90
52543;DHT22;38449;52.696;6.186;2022-10-31T08:40:48;11.90;99.90
52543;DHT22;38449;52.696;6.186;2022-10-31T08:43:15;11.80;99.90
52543;DHT22;38449;52.696;6.186;2022-10-31T08:45:42;11.80;99.90
52543;DHT22;38449;52.696;6.186;2022-10-31T08:48:12;11.80;99.90
52543;DHT22;38449;52.696;6.186;2022-10-31T08:50:39;11.80;99.90
52543;DHT22;38449;52.696;6.186;2022-10-31T08:53:17;11.90;99.90
52543;DHT22;38449;52.696;6.186;2022-10-31T08:55:44;11.90;99.90
52543;DHT22;38449;52.696;6.186;2022-10-31T08:58:12;12.10;99.90
52543;DHT22;38449;52.696;6.186;2022-10-31T09:00:38;12.20;99.90
52543;DHT22;38449;52.696;6.186;2022-10-31T09:03:06;12.30;99.90
52543;DHT22;38449;52.696;6.186;2022-10-31T09:05:32;12.40;99.90
52543;DHT22;38449;52.696;6.186;2022-10-31T09:08:00;12.40;99.90
52543;DHT22;38449;52.696;6.186;2022-10-31T09:10:26;12.40;99.90
52543;DHT22;38449;52.696;6.186;2022-10-31T09:13:00;12.50;99.90
52543;DHT22;38449;52.696;6.186;2022-10-31T09:15:27;12.60;99.90
52543;DHT22;38449;52.696;6.186;2022-10-31T09:17:53;12.70;99.90
52543;DHT22;38449;52.696;6.186;2022-10-31T09:20:19;12.70;99.90
52543;DHT22;38449;52.696;6.186;2022-10-31T09:22:46;12.70;99.90
52543;DHT22;38449;52.696;6.186;2022-10-31T09:25:11;12.80;99.90
52543;DHT22;38449;52.696;6.186;2022-10-31T09:27:37;12.80;99.90
52543;DHT22;38449;52.696;6.186;2022-10-31T09:30:04;12.80;99.90
52543;DHT22;38449;52.696;6.186;2022-10-31T09:32:29;12.90;99.90
52543;DHT22;38449;52.696;6.186;2022-10-31T09:34:55;13.00;99.90
52543;DHT22;38449;52.696;6.186;2022-10-31T09:37:20;13.10;99.90
52543;DHT22;38449;52.696;6.186;2022-10-31T09:39:46;13.10;99.90
52543;DHT22;38449;52.696;6.186;2022-10-31T09:45:36;13.20;99.90
52543;DHT22;38449;52.696;6.186;2022-10-31T09:49:17;13.10;99.90
52543;DHT22;38449;52.696;6.186;2022-10-31T09:51:24;13.10;99.90
52543;DHT22;38449;52.696;6.186;2022-10-31T09:54:02;13.10;99.90
52543;DHT22;38449;52.696;6.186;2022-10-31T09:56:30;13.10;99.90
52543;DHT22;38449;52.696;6.186;2022-10-31T09:58:58;13.10;99.90
52543;DHT22;38449;52.696;6.186;2022-10-31T10:04:36;13.20;99.90
52543;DHT22;38449;52.696;6.186;2022-10-31T10:07:24;13.20;99.90
52543;DHT22;38449;52.696;6.186;2022-10-31T10:09:52;13.30;99.90
52543;DHT22;38449;52.696;6.186;2022-10-31T10:12:42;13.40;99.90
52543;DHT22;38449;52.696;6.186;2022-10-31T10:15:43;13.50;99.90
52543;DHT22;38449;52.696;6.186;2022-10-31T10:18:30;13.70;99.90
52543;DHT22;38449;52.696;6.186;2022-10-31T10:21:09;13.90;99.90
52543;DHT22;38449;52.696;6.186;2022-10-31T10:24:03;14.00;99.90
52543;DHT22;38449;52.696;6.186;2022-10-31T10:26:40;14.20;99.90
52543;DHT22;38449;52.696;6.186;2022-10-31T10:29:33;14.30;99.90
52543;DHT22;38449;52.696;6.186;2022-10-31T10:32:03;14.50;99.90
52543;DHT22;38449;52.696;6.186;2022-10-31T10:34:39;14.70;99.90
52543;DHT22;38449;52.696;6.186;2022-10-31T10:39:55;14.90;99.90
52543;DHT22;38449;52.696;6.186;2022-10-31T10:42:23;15.00;99.90
52543;DHT22;38449;52.696;6.186;2022-10-31T10:45:18;15.10;99.90
52543;DHT22;38449;52.696;6.186;2022-10-31T10:48:41;15.20;99.90
52543;DHT22;38449;52.696;6.186;2022-10-31T10:51:08;15.20;99.90
52543;DHT22;38449;52.696;6.186;2022-10-31T10:57:04;15.20;99.90
52543;DHT22;38449;52.696;6.186;2022-10-31T10:59:31;15.30;99.90
52543;DHT22;38449;52.696;6.186;2022-10-31T11:01:58;15.30;99.90
52543;DHT22;38449;52.696;6.186;2022-10-31T11:04:35;15.40;99.90
52543;DHT22;38449;52.696;6.186;2022-10-31T11:07:10;15.50;99.90
52543;DHT22;38449;52.696;6.186;2022-10-31T11:09:36;15.40;99.90
52543;DHT22;38449;52.696;6.186;2022-10-31T11:12:24;15.40;99.90
52543;DHT22;38449;52.696;6.186;2022-10-31T11:15:15;15.50;99.90
52543;DHT22;38449;52.696;6.186;2022-10-31T11:17:42;15.50;99.90
52543;DHT22;38449;52.696;6.186;2022-10-31T11:22:43;15.50;99.90
52543;DHT22;38449;52.696;6.186;2022-10-31T11:25:23;15.40;99.90
52543;DHT22;38449;52.696;6.186;2022-10-31T11:28:10;15.50;99.90
52543;DHT22;38449;52.696;6.186;2022-10-31T11:31:05;15.60;99.90
52543;DHT22;38449;52.696;6.186;2022-10-31T11:33:36;15.60;99.90
52543;DHT22;38449;52.696;6.186;2022-10-31T11:36:26;15.60;99.90
52543;DHT22;38449;52.696;6.186;2022-10-31T11:38:53;15.60;99.90
52543;DHT22;38449;52.696;6.186;2022-10-31T11:41:39;15.60;99.90
52543;DHT22;38449;52.696;6.186;2022-10-31T11:44:19;15.60;99.90
52543;DHT22;38449;52.696;6.186;2022-10-31T11:46:51;15.60;99.90
52543;DHT22;38449;52.696;6.186;2022-10-31T11:49:30;15.60;99.90
52543;DHT22;38449;52.696;6.186;2022-10-31T11:51:59;15.70;99.90
52543;DHT22;38449;52.696;6.186;2022-10-31T11:54:38;15.70;99.90
52543;DHT22;38449;52.696;6.186;2022-10-31T11:57:04;15.60;99.90
52543;DHT22;38449;52.696;6.186;2022-10-31T11:59:31;15.70;99.90
52543;DHT22;38449;52.696;6.186;2022-10-31T12:01:59;15.80;99.90
52543;DHT22;38449;52.696;6.186;2022-10-31T12:04:57;15.80;99.90
52543;DHT22;38449;52.696;6.186;2022-10-31T12:07:24;15.90;99.90
52543;DHT22;38449;52.696;6.186;2022-10-31T12:09:50;15.90;99.90
52543;DHT22;38449;52.696;6.186;2022-10-31T12:23:48;16.00;99.90
52543;DHT22;38449;52.696;6.186;2022-10-31T12:26:30;16.10;99.90
52543;DHT22;38449;52.696;6.186;2022-10-31T12:29:22;16.10;99.90
52543;DHT22;38449;52.696;6.186;2022-10-31T12:32:03;16.00;99.90
52543;DHT22;38449;52.696;6.186;2022-10-31T12:49:24;16.20;99.90
52543;DHT22;38449;52.696;6.186;2022-10-31T12:52:15;16.30;99.90
52543;DHT22;38449;52.696;6.186;2022-10-31T12:57:28;16.40;99.90
52543;DHT22;38449;52.696;6.186;2022-10-31T13:00:02;16.50;99.90
52543;DHT22;38449;52.696;6.186;2022-10-31T13:02:38;16.60;99.90
52543;DHT22;38449;52.696;6.186;2022-10-31T13:08:09;16.50;99.90
52543;DHT22;38449;52.696;6.186;2022-10-31T13:11:02;16.50;99.90
52543;DHT22;38449;52.696;6.186;2022-10-31T13:18:47;16.50;99.90
52543;DHT22;38449;52.696;6.186;2022-10-31T13:24:20;16.40;99.90
52543;DHT22;38449;52.696;6.186;2022-10-31T13:26:53;16.40;99.90
52543;DHT22;38449;52.696;6.186;2022-10-31T13:29:27;16.40;99.90
52543;DHT22;38449;52.696;6.186;2022-10-31T13:31:54;16.40;99.90
52543;DHT22;38449;52.696;6.186;2022-10-31T13:34:36;16.40;99.90
52543;DHT22;38449;52.696;6.186;2022-10-31T13:42:45;16.30;99.90
52543;DHT22;38449;52.696;6.186;2022-10-31T13:45:17;16.30;99.90
52543;DHT22;38449;52.696;6.186;2022-10-31T13:47:54;16.30;99.90
52543;DHT22;38449;52.696;6.186;2022-10-31T13:50:30;16.30;99.90
52543;DHT22;38449;52.696;6.186;2022-10-31T13:55:45;16.30;99.90
52543;DHT22;38449;52.696;6.186;2022-10-31T13:58:26;16.30;99.90
52543;DHT22;38449;52.696;6.186;2022-10-31T14:01:19;16.30;99.90
52543;DHT22;38449;52.696;6.186;2022-10-31T14:03:47;16.30;99.90
52543;DHT22;38449;52.696;6.186;2022-10-31T14:06:14;16.30;99.90
52543;DHT22;38449;52.696;6.186;2022-10-31T14:08:48;16.30;99.90
52543;DHT22;38449;52.696;6.186;2022-10-31T14:11:24;16.30;99.90
52543;DHT22;38449;52.696;6.186;2022-10-31T14:13:52;16.30;99.90
52543;DHT22;38449;52.696;6.186;2022-10-31T14:16:31;16.30;99.90
52543;DHT22;38449;52.696;6.186;2022-10-31T14:19:16;16.30;99.90
52543;DHT22;38449;52.696;6.186;2022-10-31T14:21:44;16.30;99.90
52543;DHT22;38449;52.696;6.186;2022-10-31T14:24:32;16.20;99.90
52543;DHT22;38449;52.696;6.186;2022-10-31T14:26:58;16.30;99.90
52543;DHT22;38449;52.696;6.186;2022-10-31T14:29:33;16.30;99.90
52543;DHT22;38449;52.696;6.186;2022-10-31T14:43:43;16.10;99.90
52543;DHT22;38449;52.696;6.186;2022-10-31T14:46:44;16.10;99.90
52543;DHT22;38449;52.696;6.186;2022-10-31T14:51:59;16.10;99.90
52543;DHT22;38449;52.696;6.186;2022-10-31T14:54:30;16.10;99.90
52543;DHT22;38449;52.696;6.186;2022-10-31T14:59:54;16.10;99.90
52543;DHT22;38449;52.696;6.186;2022-10-31T15:02:27;16.00;99.90
52543;DHT22;38449;52.696;6.186;2022-10-31T15:04:55;16.00;99.90
52543;DHT22;38449;52.696;6.186;2022-10-31T15:07:24;16.00;99.90
52543;DHT22;38449;52.696;6.186;2022-10-31T15:10:00;16.00;99.90
52543;DHT22;38449;52.696;6.186;2022-10-31T15:12:28;16.00;99.90
52543;DHT22;38449;52.696;6.186;2022-10-31T15:14:54;16.00;99.90
52543;DHT22;38449;52.696;6.186;2022-10-31T15:17:25;15.90;99.90
52543;DHT22;38449;52.696;6.186;2022-10-31T15:19:52;15.90;99.90
52543;DHT22;38449;52.696;6.186;2022-10-31T15:22:21;16.00;99.90
52543;DHT22;38449;52.696;6.186;2022-10-31T15:24:48;15.80;99.90
52543;DHT22;38449;52.696;6.186;2022-10-31T15:27:16;15.80;99.90
52543;DHT22;38449;52.696;6.186;2022-10-31T15:29:53;15.70;99.90
52543;DHT22;38449;52.696;6.186;2022-10-31T15:32:22;15.70;99.90
52543;DHT22;38449;52.696;6.186;2022-10-31T15:34:49;15.60;99.90
52543;DHT22;38449;52.696;6.186;2022-10-31T15:37:17;15.60;99.90
52543;DHT22;38449;52.696;6.186;2022-10-31T15:39:45;15.60;99.90
52543;DHT22;38449;52.696;6.186;2022-10-31T15:42:32;15.60;99.90
52543;DHT22;38449;52.696;6.186;2022-10-31T15:45:17;15.60;99.90
52543;DHT22;38449;52.696;6.186;2022-10-31T15:47:56;15.50;99.90
52543;DHT22;38449;52.696;6.186;2022-10-31T15:50:49;15.40;99.90
52543;DHT22;38449;52.696;6.186;2022-10-31T15:53:18;15.40;99.90
52543;DHT22;38449;52.696;6.186;2022-10-31T15:55:54;15.40;99.90
52543;DHT22;38449;52.696;6.186;2022-10-31T15:58:21;15.30;99.90
52543;DHT22;38449;52.696;6.186;2022-10-31T16:00:58;15.30;99.90
52543;DHT22;38449;52.696;6.186;2022-10-31T16:03:27;15.30;99.90
52543;DHT22;38449;52.696;6.186;2022-10-31T16:05:55;15.30;99.90
52543;DHT22;38449;52.696;6.186;2022-10-31T16:11:14;15.20;99.90
52543;DHT22;38449;52.696;6.186;2022-10-31T16:13:52;15.10;99.90
52543;DHT22;38449;52.696;6.186;2022-10-31T16:16:19;15.10;99.90
52543;DHT22;38449;52.696;6.186;2022-10-31T16:18:49;15.10;99.90
52543;DHT22;38449;52.696;6.186;2022-10-31T16:21:15;15.20;99.90
52543;DHT22;38449;52.696;6.186;2022-10-31T16:23:46;15.20;99.90
52543;DHT22;38449;52.696;6.186;2022-10-31T16:26:17;15.30;99.90
52543;DHT22;38449;52.696;6.186;2022-10-31T16:28:57;15.30;99.90
52543;DHT22;38449;52.696;6.186;2022-10-31T16:31:35;15.40;99.90
52543;DHT22;38449;52.696;6.186;2022-10-31T16:34:20;15.40;99.90
52543;DHT22;38449;52.696;6.186;2022-10-31T16:36:46;15.40;99.90
52543;DHT22;38449;52.696;6.186;2022-10-31T16:39:12;15.50;99.90
52543;DHT22;38449;52.696;6.186;2022-10-31T16:41:41;15.50;99.90
52543;DHT22;38449;52.696;6.186;2022-10-31T16:44:17;15.50;99.90
52543;DHT22;38449;52.696;6.186;2022-10-31T16:46:43;15.60;99.90
52543;DHT22;38449;52.696;6.186;2022-10-31T16:49:09;15.50;99.90
52543;DHT22;38449;52.696;6.186;2022-10-31T16:51:35;15.50;99.90
52543;DHT22;38449;52.696;6.186;2022-10-31T16:54:01;15.50;99.90
52543;DHT22;38449;52.696;6.186;2022-10-31T16:56:30;15.50;99.90
52543;DHT22;38449;52.696;6.186;2022-10-31T16:58:58;15.40;99.90
52543;DHT22;38449;52.696;6.186;2022-10-31T17:01:25;15.40;99.90
52543;DHT22;38449;52.696;6.186;2022-10-31T17:03:50;15.40;99.90
52543;DHT22;38449;52.696;6.186;2022-10-31T17:06:16;15.40;99.90
52543;DHT22;38449;52.696;6.186;2022-10-31T17:08:42;15.40;99.90
52543;DHT22;38449;52.696;6.186;2022-10-31T17:11:14;15.30;99.90
52543;DHT22;38449;52.696;6.186;2022-10-31T17:13:40;15.40;99.90
52543;DHT22;38449;52.696;6.186;2022-10-31T17:16:06;15.40;99.90
52543;DHT22;38449;52.696;6.186;2022-10-31T17:18:31;15.30;99.90
52543;DHT22;38449;52.696;6.186;2022-10-31T17:20:58;15.30;99.90
52543;DHT22;38449;52.696;6.186;2022-10-31T17:23:25;15.30;99.90
52543;DHT22;38449;52.696;6.186;2022-10-31T17:25:51;15.30;99.90
52543;DHT22;38449;52.696;6.186;2022-10-31T17:28:17;15.30;99.90
52543;DHT22;38449;52.696;6.186;2022-10-31T17:30:42;15.30;99.90
52543;DHT22;38449;52.696;6.186;2022-10-31T17:33:12;15.30;99.90
52543;DHT22;38449;52.696;6.186;2022-10-31T17:35:40;15.20;99.90
52543;DHT22;38449;52.696;6.186;2022-10-31T17:38:06;15.20;99.90